createdAt,value
2022-09-06T00:00:18.925Z,19.49
2022-09-06T00:02:46.149Z,19.56
2022-09-06T00:05:13.497Z,19.82
2022-09-06T00:07:41.109Z,19.72
2022-09-06T00:10:09.125Z,19.95
2022-09-06T00:12:37.248Z,20.11
2022-09-06T00:15:06.553Z,19.76
2022-09-06T00:17:34.377Z,19.34
2022-09-06T00:20:02.286Z,19.93
2022-09-06T00:22:28.972Z,19.90
2022-09-06T00:24:55.721Z,19.76
2022-09-06T00:27:22.568Z,19.57
2022-09-06T00:29:49.260Z,20.29
2022-09-06T00:32:16.121Z,19.81
2022-09-06T00:34:42.795Z,20.15
2022-09-06T00:37:09.548Z,20.30
2022-09-06T00:39:36.397Z,20.10
2022-09-06T00:42:07.425Z,19.94
2022-09-06T00:44:34.156Z,19.67
2022-09-06T00:47:01.237Z,19.81
2022-09-06T00:49:41.287Z,18.90
2022-09-06T00:52:13.767Z,19.15
2022-09-06T00:54:41.310Z,19.52
2022-09-06T00:57:08.419Z,19.60
2022-09-06T00:59:37.815Z,19.76
2022-09-06T01:02:05.622Z,19.61
2022-09-06T01:04:33.225Z,19.07
2022-09-06T01:07:23.742Z,19.37
2022-09-06T01:10:11.817Z,19.25
2022-09-06T01:13:19.923Z,19.62
2022-09-06T01:16:05.074Z,19.18
2022-09-06T01:19:04.160Z,19.02
2022-09-06T01:22:09.178Z,19.55
2022-09-06T01:25:31.527Z,19.59
2022-09-06T01:28:23.400Z,18.77
2022-09-06T01:31:19.612Z,18.41
2022-09-06T01:34:14.122Z,18.84
2022-09-06T01:37:13.467Z,18.47
2022-09-06T01:39:41.790Z,18.99
2022-09-06T01:42:24.032Z,19.31
2022-09-06T01:44:59.867Z,20.05
2022-09-06T01:48:12.317Z,19.92
2022-09-06T01:50:57.530Z,19.76
2022-09-06T01:53:48.407Z,19.54
2022-09-06T01:56:45.447Z,19.16
2022-09-06T01:59:33.748Z,19.33
2022-09-06T02:02:14.167Z,19.17
2022-09-06T02:04:57.165Z,19.18
2022-09-06T02:07:27.819Z,19.50
2022-09-06T02:10:08.396Z,18.94
2022-09-06T02:12:40.569Z,18.54
2022-09-06T02:15:24.655Z,18.39
2022-09-06T02:18:02.218Z,18.95
2022-09-06T02:20:38.218Z,18.58
2022-09-06T02:23:08.450Z,18.47
2022-09-06T02:25:43.168Z,18.53
2022-09-06T02:28:10.836Z,18.29
2022-09-06T02:30:49.135Z,17.82
2022-09-06T02:33:28.101Z,18.59
2022-09-06T02:35:55.863Z,17.89
2022-09-06T02:38:26.887Z,19.18
2022-09-06T02:40:55.863Z,19.34
2022-09-06T02:43:22.685Z,18.92
2022-09-06T02:45:49.469Z,18.54
2022-09-06T02:48:16.232Z,18.18
2022-09-06T02:50:42.978Z,18.63
2022-09-06T02:53:15.349Z,18.05
2022-09-06T02:55:42.609Z,18.83
2022-09-06T02:58:11.376Z,18.45
2022-09-06T03:00:38.931Z,18.46
2022-09-06T03:03:05.937Z,19.33
2022-09-06T03:05:33.418Z,19.25
2022-09-06T03:08:00.123Z,19.12
2022-09-06T03:10:27.064Z,19.08
2022-09-06T03:12:53.801Z,19.10
2022-09-06T03:15:21.011Z,18.86
2022-09-06T03:17:47.870Z,18.85
2022-09-06T03:20:14.670Z,18.55
2022-09-06T03:22:41.762Z,18.83
2022-09-06T03:25:10.222Z,18.36
2022-09-06T03:27:37.692Z,18.65
2022-09-06T03:30:06.358Z,18.83
2022-09-06T03:32:33.479Z,18.52
2022-09-06T03:35:00.511Z,18.25
2022-09-06T03:37:27.727Z,18.20
2022-09-06T03:39:55.105Z,18.30
2022-09-06T03:42:22.274Z,18.23
2022-09-06T03:44:48.955Z,18.04
2022-09-06T03:47:19.463Z,18.44
2022-09-06T03:49:47.527Z,18.44
2022-09-06T03:52:15.068Z,18.57
2022-09-06T03:54:41.794Z,18.55
2022-09-06T03:57:09.026Z,17.83
2022-09-06T03:59:36.063Z,17.93
2022-09-06T04:02:03.410Z,17.75
2022-09-06T04:04:30.146Z,17.62
2022-09-06T04:06:56.823Z,18.22
2022-09-06T04:09:24.008Z,17.96
2022-09-06T04:11:50.806Z,17.95
2022-09-06T04:14:17.664Z,17.41
2022-09-06T04:16:44.491Z,17.64
2022-09-06T04:19:11.231Z,17.33
2022-09-06T04:21:38.691Z,17.71
2022-09-06T04:24:05.612Z,17.12
2022-09-06T04:26:32.778Z,17.16
2022-09-06T04:28:59.481Z,16.66
2022-09-06T04:31:26.316Z,16.47
2022-09-06T04:33:53.058Z,16.72
2022-09-06T04:36:19.870Z,16.61
2022-09-06T04:38:46.676Z,16.93
2022-09-06T04:41:15.763Z,17.29
2022-09-06T04:43:43.352Z,17.40
2022-09-06T04:46:22.282Z,17.54
2022-09-06T04:48:49.885Z,17.40
2022-09-06T04:51:17.230Z,17.44
2022-09-06T04:53:44.675Z,17.65
2022-09-06T04:56:19.234Z,17.49
2022-09-06T04:58:47.511Z,18.01
2022-09-06T05:01:14.916Z,18.39
2022-09-06T05:03:41.714Z,18.43
2022-09-06T05:06:18.196Z,18.21
2022-09-06T05:08:44.851Z,18.06
2022-09-06T05:11:11.808Z,18.54
2022-09-06T05:13:39.414Z,18.82
2022-09-06T05:16:08.529Z,19.12
2022-09-06T05:18:36.242Z,18.73
2022-09-06T05:21:03.167Z,18.96
2022-09-06T05:23:30.005Z,19.54
2022-09-06T05:25:56.692Z,19.49
2022-09-06T05:28:23.489Z,19.54
2022-09-06T05:30:50.293Z,19.39
2022-09-06T05:33:22.914Z,19.04
2022-09-06T05:35:49.911Z,18.55
2022-09-06T05:38:16.806Z,18.58
2022-09-06T05:40:43.814Z,19.19
2022-09-06T05:43:10.541Z,19.18
2022-09-06T05:45:37.448Z,18.87
2022-09-06T05:48:04.316Z,18.92
2022-09-06T05:50:31.096Z,19.68
2022-09-06T05:52:57.805Z,19.48
2022-09-06T05:55:24.608Z,19.05
2022-09-06T05:57:51.292Z,18.89
2022-09-06T06:00:18.138Z,18.60
2022-09-06T06:02:48.442Z,19.04
2022-09-06T06:05:16.237Z,18.95
2022-09-06T06:07:43.318Z,18.85
2022-09-06T06:10:10.474Z,19.32
2022-09-06T06:12:37.500Z,18.08
2022-09-06T06:15:05.884Z,18.96
2022-09-06T06:17:32.910Z,19.57
2022-09-06T06:19:59.775Z,19.97
2022-09-06T06:22:26.462Z,19.38
2022-09-06T06:24:53.294Z,19.49
2022-09-06T06:27:20.038Z,19.51
2022-09-06T06:29:46.826Z,19.68
2022-09-06T06:32:13.480Z,19.49
2022-09-06T06:34:40.150Z,19.89
2022-09-06T06:37:06.857Z,18.99
2022-09-06T06:39:33.695Z,18.19
2022-09-06T06:42:00.571Z,18.42
2022-09-06T06:44:29.858Z,18.86
2022-09-06T06:46:58.045Z,18.81
2022-09-06T06:49:25.205Z,18.47
2022-09-06T06:51:51.913Z,19.29
2022-09-06T06:54:18.642Z,19.06
2022-09-06T06:56:45.625Z,19.31
2022-09-06T06:59:12.314Z,19.19
2022-09-06T07:01:39.210Z,19.07
2022-09-06T07:04:07.100Z,19.91
2022-09-06T07:12:21.792Z,20.41
2022-09-06T07:14:48.483Z,19.87
2022-09-06T07:17:15.192Z,20.70
2022-09-06T07:22:28.559Z,21.03
2022-09-06T07:24:55.263Z,20.37
2022-09-06T07:30:10.206Z,20.94
2022-09-06T07:32:36.997Z,21.08
2022-09-06T07:35:04.137Z,20.77
2022-09-06T07:37:30.796Z,20.29
2022-09-06T07:39:57.578Z,21.13
2022-09-06T07:42:24.402Z,22.11
2022-09-06T07:44:51.087Z,21.28
2022-09-06T07:53:10.950Z,21.62
2022-09-06T07:55:39.457Z,21.79
2022-09-06T07:58:06.299Z,22.27
2022-09-06T08:00:33.023Z,21.70
2022-09-06T08:02:59.802Z,22.16
2022-09-06T08:11:00.366Z,21.27
2022-09-06T08:13:27.579Z,21.57
2022-09-06T08:16:02.624Z,22.54
2022-09-06T08:18:29.482Z,21.60
2022-09-06T08:20:56.312Z,21.60
2022-09-06T08:23:23.109Z,21.33
2022-09-06T08:25:58.231Z,21.45
2022-09-06T08:28:28.564Z,20.91
2022-09-06T08:31:04.635Z,21.67
2022-09-06T08:33:31.512Z,21.97
2022-09-06T08:35:59.325Z,20.55
2022-09-06T08:38:27.347Z,21.01
2022-09-06T08:41:05.885Z,22.04
2022-09-06T08:43:32.554Z,22.09
2022-09-06T08:45:59.376Z,23.06
2022-09-06T08:48:33.608Z,22.92
2022-09-06T08:51:38.548Z,22.88
2022-09-06T08:54:52.762Z,23.99
2022-09-06T08:58:07.157Z,22.40
2022-09-06T09:00:36.518Z,22.93
2022-09-06T09:03:13.222Z,23.28
2022-09-06T09:05:47.178Z,23.48
2022-09-06T09:08:55.392Z,22.76
2022-09-06T09:11:25.405Z,23.37
2022-09-06T09:14:30.629Z,23.94
2022-09-06T09:17:10.684Z,23.06
2022-09-06T09:19:41.818Z,22.49
2022-09-06T09:22:10.006Z,22.49
2022-09-06T09:24:37.305Z,23.43
2022-09-06T09:27:11.463Z,23.93
2022-09-06T09:32:45.949Z,23.70
2022-09-06T09:35:37.212Z,23.78
2022-09-06T09:38:19.198Z,23.75
2022-09-06T09:40:57.090Z,23.83
2022-09-06T09:43:28.356Z,24.40
2022-09-06T09:46:12.349Z,24.74
2022-09-06T09:48:40.740Z,25.13
2022-09-06T09:51:27.577Z,24.57
2022-09-06T09:54:04.810Z,24.17
2022-09-06T09:57:07.280Z,24.48
2022-09-06T09:59:36.666Z,22.79
2022-09-06T10:02:39.330Z,22.86
2022-09-06T10:05:20.692Z,22.43
2022-09-06T10:08:00.283Z,21.73
2022-09-06T10:10:40.969Z,22.77
2022-09-06T10:13:24.093Z,22.32
2022-09-06T10:15:53.462Z,22.70
2022-09-06T10:18:43.825Z,23.60
2022-09-06T10:21:17.657Z,22.94
2022-09-06T10:24:26.173Z,22.23
2022-09-06T10:27:02.347Z,22.68
2022-09-06T10:29:53.066Z,23.08
2022-09-06T10:32:46.040Z,22.74
2022-09-06T10:35:39.394Z,23.14
2022-09-06T10:38:41.989Z,23.32
2022-09-06T10:41:51.197Z,24.11
2022-09-06T10:44:35.014Z,23.66
2022-09-06T10:47:11.781Z,23.10
2022-09-06T10:49:45.124Z,24.05
2022-09-06T10:52:20.617Z,24.91
2022-09-06T10:54:47.450Z,24.59
2022-09-06T11:00:14.548Z,24.41
2022-09-06T11:06:16.440Z,24.43
2022-09-06T11:08:57.807Z,24.17
2022-09-06T11:11:38.611Z,24.28
2022-09-06T11:14:11.678Z,24.99
2022-09-06T11:16:49.425Z,26.29
2022-09-06T11:19:25.006Z,25.52
2022-09-06T11:22:19.024Z,25.13
2022-09-06T11:24:55.080Z,25.34
2022-09-06T11:27:36.432Z,24.46
2022-09-06T11:30:06.853Z,25.30
2022-09-06T11:33:05.119Z,24.66
2022-09-06T11:35:33.547Z,24.82
2022-09-06T11:38:15.877Z,25.72
2022-09-06T11:40:47.775Z,25.43
2022-09-06T11:43:51.822Z,25.31
2022-09-06T11:46:33.699Z,26.10
2022-09-06T11:49:07.776Z,25.85
2022-09-06T11:51:44.528Z,25.38
2022-09-06T11:54:23.748Z,25.56
2022-09-06T11:57:02.345Z,27.45
2022-09-06T12:00:04.429Z,27.52
2022-09-06T12:02:42.412Z,27.02
2022-09-06T12:05:14.261Z,28.21
2022-09-06T12:08:16.313Z,27.38
2022-09-06T12:11:05.471Z,27.80
2022-09-06T12:14:26.006Z,28.76
2022-09-06T12:17:01.972Z,28.17
2022-09-06T12:20:05.939Z,28.06
2022-09-06T12:22:42.095Z,27.69
2022-09-06T12:25:34.176Z,27.55
2022-09-06T12:28:06.505Z,27.03
2022-09-06T12:30:46.136Z,25.74
2022-09-06T12:33:26.127Z,26.25
2022-09-06T12:35:56.308Z,27.43
2022-09-06T12:38:25.287Z,27.45
2022-09-06T12:40:58.192Z,26.77
2022-09-06T12:43:26.248Z,26.80
2022-09-06T12:45:53.509Z,27.56
2022-09-06T12:48:33.611Z,27.44
2022-09-06T12:51:07.382Z,27.63
2022-09-06T12:53:34.919Z,28.18
2022-09-06T12:56:09.303Z,29.43
2022-09-06T12:58:38.671Z,30.00
2022-09-06T13:01:18.573Z,29.22
2022-09-06T13:03:54.003Z,29.78
2022-09-06T13:06:27.170Z,28.39
2022-09-06T13:08:57.297Z,29.12
2022-09-06T13:11:42.383Z,28.96
2022-09-06T13:14:32.657Z,29.65
2022-09-06T13:17:00.143Z,30.49
2022-09-06T13:19:31.274Z,30.53
2022-09-06T13:21:59.903Z,30.53
2022-09-06T13:24:46.625Z,29.33
2022-09-06T13:27:34.872Z,28.81
2022-09-06T13:30:09.235Z,28.00
2022-09-06T13:32:45.857Z,27.38
2022-09-06T13:35:23.906Z,26.42
2022-09-06T13:37:51.024Z,28.32
2022-09-06T13:43:33.385Z,28.36
2022-09-06T13:46:11.681Z,27.90
2022-09-06T13:48:39.583Z,28.56
2022-09-06T13:51:09.631Z,29.03
2022-09-06T13:53:36.695Z,28.83
2022-09-06T13:56:03.870Z,29.21
2022-09-06T13:58:30.678Z,29.56
2022-09-06T14:00:58.729Z,29.40
2022-09-06T14:03:32.470Z,28.89
2022-09-06T14:06:00.309Z,28.86
2022-09-06T14:08:38.756Z,28.98
2022-09-06T14:11:15.767Z,29.25
2022-09-06T14:13:42.455Z,30.05
2022-09-06T14:16:09.238Z,28.79
2022-09-06T14:18:36.350Z,28.84
2022-09-06T14:21:05.375Z,28.68
2022-09-06T14:23:32.087Z,28.99
2022-09-06T14:26:01.366Z,28.46
2022-09-06T14:28:31.061Z,28.28
2022-09-06T14:30:57.879Z,28.81
2022-09-06T14:33:24.687Z,27.75
2022-09-06T14:35:52.336Z,26.83
2022-09-06T14:38:19.551Z,27.26
2022-09-06T14:40:46.339Z,28.04
2022-09-06T14:43:13.126Z,27.04
2022-09-06T14:45:39.845Z,27.35
2022-09-06T14:48:07.099Z,27.86
2022-09-06T14:50:34.353Z,28.20
2022-09-06T14:53:01.148Z,27.87
2022-09-06T14:55:28.154Z,28.35
2022-09-06T14:57:55.317Z,28.74
2022-09-06T15:00:22.726Z,27.96
2022-09-06T15:02:49.516Z,28.59
2022-09-06T15:05:16.373Z,28.40
2022-09-06T15:07:43.303Z,28.39
2022-09-06T15:10:10.867Z,28.07
2022-09-06T15:12:38.204Z,28.42
2022-09-06T15:15:06.030Z,30.01
2022-09-06T15:17:35.080Z,31.18
2022-09-06T15:20:02.246Z,31.33
2022-09-06T15:22:29.547Z,30.90
2022-09-06T15:24:56.273Z,31.75
2022-09-06T15:27:23.260Z,31.16
2022-09-06T15:29:50.072Z,30.21
2022-09-06T15:32:16.758Z,30.40
2022-09-06T15:34:43.555Z,29.92
2022-09-06T15:37:10.406Z,29.29
2022-09-06T15:39:37.200Z,28.61
2022-09-06T15:42:04.226Z,28.67
2022-09-06T15:44:30.956Z,29.65
2022-09-06T15:46:59.133Z,29.11
2022-09-06T15:49:32.044Z,29.80
2022-09-06T15:52:02.504Z,29.67
2022-09-06T15:54:52.569Z,29.66
2022-09-06T15:57:19.429Z,28.26
2022-09-06T15:59:47.139Z,28.34
2022-09-06T16:02:14.557Z,28.72
2022-09-06T16:04:41.423Z,28.23
2022-09-06T16:07:09.657Z,28.13
2022-09-06T16:09:36.387Z,28.20
2022-09-06T16:12:03.578Z,27.83
2022-09-06T16:14:30.706Z,27.42
2022-09-06T16:16:57.633Z,27.87
2022-09-06T16:19:25.943Z,27.31
2022-09-06T16:21:52.727Z,27.78
2022-09-06T16:24:19.506Z,26.95
2022-09-06T16:26:46.707Z,27.31
2022-09-06T16:29:17.945Z,26.66
2022-09-06T16:31:45.411Z,26.70
2022-09-06T16:34:13.113Z,26.33
2022-09-06T16:36:40.887Z,26.35
2022-09-06T16:39:08.081Z,25.48
2022-09-06T16:41:52.713Z,25.49
2022-09-06T16:44:20.533Z,24.85
2022-09-06T16:46:49.763Z,25.56
2022-09-06T16:49:17.868Z,25.37
2022-09-06T16:51:45.655Z,25.25
2022-09-06T16:54:14.622Z,25.97
2022-09-06T16:56:41.851Z,25.15
2022-09-06T16:59:10.790Z,25.87
2022-09-06T17:01:43.301Z,25.73
2022-09-06T17:04:10.661Z,26.02
2022-09-06T17:06:44.155Z,26.26
2022-09-06T17:09:14.114Z,25.89
2022-09-06T17:11:41.005Z,26.23
2022-09-06T17:14:08.596Z,25.96
2022-09-06T17:16:53.797Z,25.42
2022-09-06T17:19:20.692Z,25.98
2022-09-06T17:21:47.729Z,25.59
2022-09-06T17:24:14.596Z,25.85
2022-09-06T17:26:41.372Z,25.59
2022-09-06T17:29:08.858Z,25.95
2022-09-06T17:31:36.936Z,25.55
2022-09-06T17:34:04.347Z,25.02
2022-09-06T17:36:33.430Z,25.13
2022-09-06T17:39:13.855Z,24.66
2022-09-06T17:41:47.662Z,24.56
2022-09-06T17:44:19.015Z,24.63
2022-09-06T17:47:08.904Z,24.04
2022-09-06T17:49:34.213Z,24.08
2022-09-06T17:52:00.969Z,24.65
2022-09-06T17:54:28.269Z,24.56
2022-09-06T17:56:55.048Z,24.69
2022-09-06T17:59:21.852Z,23.99
2022-09-06T18:01:48.661Z,23.42
2022-09-06T18:04:15.986Z,23.77
2022-09-06T18:06:43.922Z,23.95
2022-09-06T18:09:15.474Z,23.90
2022-09-06T18:11:45.584Z,24.13
2022-09-06T18:14:16.708Z,24.38
2022-09-06T18:16:48.954Z,23.96
2022-09-06T18:19:17.479Z,24.06
2022-09-06T18:21:44.479Z,23.72
2022-09-06T18:24:13.732Z,23.60
2022-09-06T18:26:41.543Z,23.93
2022-09-06T18:29:12.169Z,23.77
2022-09-06T18:31:39.771Z,23.93
2022-09-06T18:34:07.857Z,23.74
2022-09-06T18:36:35.106Z,24.09
2022-09-06T18:39:04.719Z,24.41
2022-09-06T18:41:51.910Z,24.01
2022-09-06T18:44:19.091Z,24.54
2022-09-06T18:46:45.900Z,24.63
2022-09-06T18:49:15.166Z,24.61
2022-09-06T18:51:43.050Z,24.65
2022-09-06T18:54:10.893Z,24.83
2022-09-06T18:56:37.838Z,24.98
2022-09-06T18:59:05.608Z,24.17
2022-09-06T19:01:34.739Z,23.60
2022-09-06T19:04:03.057Z,23.10
2022-09-06T19:06:31.830Z,23.67
2022-09-06T19:09:01.636Z,23.62
2022-09-06T19:11:28.987Z,22.96
2022-09-06T19:14:00.697Z,22.98
2022-09-06T19:16:32.282Z,22.84
2022-09-06T19:19:09.823Z,23.43
2022-09-06T19:21:41.486Z,23.33
2022-09-06T19:24:12.719Z,23.39
2022-09-06T19:26:43.326Z,22.57
2022-09-06T19:29:19.405Z,22.66
2022-09-06T19:31:47.263Z,22.88
2022-09-06T19:34:15.648Z,22.40
2022-09-06T19:36:44.608Z,22.74
2022-09-06T19:39:15.136Z,22.24
2022-09-06T19:41:44.949Z,22.28
2022-09-06T19:44:12.570Z,22.41
2022-09-06T19:46:45.478Z,22.69
2022-09-06T19:49:15.583Z,22.99
2022-09-06T19:51:43.872Z,23.38
2022-09-06T19:54:10.622Z,24.20
2022-09-06T19:56:37.394Z,24.27
2022-09-06T19:59:12.233Z,24.47
2022-09-06T20:01:41.854Z,24.10
2022-09-06T20:04:11.021Z,24.18
2022-09-06T20:06:38.823Z,23.39
2022-09-06T20:09:09.081Z,23.21
2022-09-06T20:11:37.807Z,23.64
2022-09-06T20:14:04.949Z,23.64
2022-09-06T20:16:31.994Z,24.25
2022-09-06T20:18:59.391Z,23.93
2022-09-06T20:21:30.031Z,23.84
2022-09-06T20:23:59.417Z,24.02
2022-09-06T20:26:30.288Z,23.45
2022-09-06T20:29:02.827Z,23.42
2022-09-06T20:31:31.781Z,23.58
2022-09-06T20:34:01.294Z,23.50
2022-09-06T20:36:28.432Z,23.36
2022-09-06T20:38:55.298Z,23.24
2022-09-06T20:41:25.151Z,23.26
2022-09-06T20:43:54.871Z,22.93
2022-09-06T20:46:25.658Z,22.47
2022-09-06T20:48:53.239Z,22.39
2022-09-06T20:51:23.392Z,23.39
2022-09-06T20:53:56.693Z,22.73
2022-09-06T20:56:33.772Z,23.47
2022-09-06T20:59:03.836Z,23.22
2022-09-06T21:01:35.060Z,23.63
2022-09-06T21:04:05.443Z,23.50
2022-09-06T21:06:35.470Z,23.29
2022-09-06T21:09:05.235Z,23.41
2022-09-06T21:11:32.000Z,23.35
2022-09-06T21:13:59.053Z,23.42
2022-09-06T21:16:29.039Z,23.51
2022-09-06T21:19:02.803Z,23.23
2022-09-06T21:21:32.449Z,23.20
2022-09-06T21:24:04.567Z,23.13
2022-09-06T21:26:31.910Z,23.38
2022-09-06T21:28:58.927Z,22.68
2022-09-06T21:31:32.277Z,21.82
2022-09-06T21:34:03.253Z,21.95
2022-09-06T21:36:34.958Z,22.33
2022-09-06T21:39:05.973Z,22.13
2022-09-06T21:41:35.013Z,22.24
2022-09-06T21:44:04.027Z,22.57
2022-09-06T21:46:35.299Z,22.08
2022-09-06T21:49:07.153Z,22.87
2022-09-06T21:51:34.413Z,22.80
2022-09-06T21:54:04.999Z,22.22
2022-09-06T21:56:37.049Z,22.13
2022-09-06T21:59:05.223Z,21.94
2022-09-06T22:01:35.572Z,21.59
2022-09-06T22:04:03.316Z,21.23
2022-09-06T22:06:32.513Z,21.16
2022-09-06T22:09:02.939Z,21.33
2022-09-06T22:11:33.970Z,21.86
2022-09-06T22:14:07.635Z,21.98
2022-09-06T22:16:37.805Z,22.05
2022-09-06T22:19:07.212Z,22.96
2022-09-06T22:21:35.154Z,22.78
2022-09-06T22:24:05.803Z,22.59
2022-09-06T22:26:34.886Z,22.63
2022-09-06T22:29:05.281Z,22.66
2022-09-06T22:31:35.892Z,22.66
2022-09-06T22:34:04.004Z,22.21
2022-09-06T22:36:30.820Z,22.97
2022-09-06T22:38:58.583Z,22.27
2022-09-06T22:41:27.683Z,23.20
2022-09-06T22:43:54.803Z,22.71
2022-09-06T22:46:21.681Z,22.67
2022-09-06T22:48:49.245Z,22.11
2022-09-06T22:51:16.387Z,22.58
2022-09-06T22:53:43.681Z,22.57
2022-09-06T22:56:10.484Z,22.37
2022-09-06T22:58:37.266Z,22.02
2022-09-06T23:01:13.253Z,22.72
2022-09-06T23:03:41.994Z,22.69
2022-09-06T23:06:10.038Z,22.55
2022-09-06T23:08:39.488Z,22.74
2022-09-06T23:11:12.481Z,22.41
2022-09-06T23:13:43.419Z,21.85
2022-09-06T23:16:14.466Z,21.92
2022-09-06T23:18:41.697Z,22.32
2022-09-06T23:21:11.946Z,22.20
2022-09-06T23:23:40.333Z,22.67
2022-09-06T23:26:23.099Z,22.22
2022-09-06T23:28:51.799Z,22.28
2022-09-06T23:31:18.940Z,22.37
2022-09-06T23:33:45.753Z,22.45
2022-09-06T23:36:14.936Z,22.08
2022-09-06T23:38:42.617Z,22.47
2022-09-06T23:41:10.432Z,22.12
2022-09-06T23:43:38.825Z,21.41
2022-09-06T23:46:05.562Z,21.56
2022-09-06T23:48:32.512Z,20.99
2022-09-06T23:50:59.484Z,21.48
2022-09-06T23:53:26.343Z,21.79
2022-09-06T23:55:53.388Z,21.84
2022-09-06T23:58:20.673Z,21.99
